Time;durP1;ratioP1;P1;durP2;ratioP2;P2;SDS_P1;SDS_P2;PMS_P1;PMS_P2;Temp;Humidity;BMP_temperature;BMP_pressure;BME280_temperature;BME280_humidity;BME280_pressure;Samples;Min_cycle;Max_cycle;Signal;HPM_P1;HPM_P2
2021/11/30 00:01:49;;;;;;;8.57;5.93;;;1.20;99.90;;;;;;5013754;28;20253;-90
2021/11/30 00:04:16;;;;;;;5.80;5.30;;;1.20;99.90;;;;;;5016268;28;20222;-91
2021/11/30 00:06:44;;;;;;;7.50;5.95;;;1.20;99.90;;;;;;5012520;28;20216;-91
2021/11/30 00:10:43;;;;;;;6.20;4.88;;;1.20;99.90;;;;;;5005531;28;20207;-93
2021/11/30 00:12:14;;;;;;;5.05;4.55;;;1.20;99.90;;;;;;5010906;28;20254;-92
2021/11/30 00:14:44;;;;;;;5.55;4.53;;;1.20;99.90;;;;;;5011181;28;20203;-94
2021/11/30 00:17:13;;;;;;;6.45;4.40;;;1.30;99.90;;;;;;5011236;28;20207;-94
2021/11/30 00:19:43;;;;;;;6.45;5.03;;;1.30;99.90;;;;;;5008670;28;20279;-93
2021/11/30 00:22:15;;;;;;;6.43;4.93;;;1.30;99.90;;;;;;5005089;28;20227;-92
2021/11/30 00:24:44;;;;;;;10.30;4.53;;;1.30;99.90;;;;;;5004368;28;20206;-94
2021/11/30 00:27:12;;;;;;;5.85;4.95;;;1.30;99.90;;;;;;5007044;28;20207;-93
2021/11/30 00:29:40;;;;;;;4.97;4.20;;;1.30;99.90;;;;;;5008722;28;20296;-93
2021/11/30 00:32:12;;;;;;;4.82;4.10;;;1.30;99.90;;;;;;5006633;28;20227;-93
2021/11/30 00:34:42;;;;;;;4.38;4.05;;;1.30;99.90;;;;;;5004282;28;20227;-93
2021/11/30 00:37:09;;;;;;;5.97;4.75;;;1.30;99.90;;;;;;5005013;28;20207;-93
2021/11/30 00:39:37;;;;;;;4.47;4.03;;;1.20;99.90;;;;;;5005501;28;20209;-93
2021/11/30 00:42:05;;;;;;;4.55;4.15;;;1.20;99.90;;;;;;5005123;28;20237;-92
2021/11/30 00:44:35;;;;;;;10.55;4.13;;;1.30;99.90;;;;;;5005693;28;20680;-92
2021/11/30 00:47:05;;;;;;;4.07;3.67;;;1.20;99.90;;;;;;5005172;28;20196;-92
2021/11/30 00:49:32;;;;;;;3.65;3.30;;;1.20;99.90;;;;;;5002210;28;20294;-92
2021/11/30 00:52:01;;;;;;;3.90;3.50;;;1.20;99.90;;;;;;5007848;28;20249;-92
2021/11/30 00:54:29;;;;;;;3.60;3.30;;;1.20;99.90;;;;;;5010461;28;20223;-92
2021/11/30 00:56:58;;;;;;;4.18;3.65;;;1.20;99.90;;;;;;5007406;28;20294;-91
2021/11/30 00:59:27;;;;;;;4.45;4.05;;;1.20;99.90;;;;;;4999898;28;20209;-92
2021/11/30 02:53:10;;;;;;;2.55;2.35;;;0.90;99.90;;;;;;1555011;23;20575;-93
2021/11/30 05:18:51;;;;;;;5.50;2.95;;;0.40;99.90;;;;;;4967787;29;20467;-93
2021/11/30 05:21:19;;;;;;;4.00;3.33;;;0.50;99.90;;;;;;4969699;28;20221;-93
2021/11/30 05:23:46;;;;;;;5.38;3.30;;;0.50;99.90;;;;;;4969752;28;20611;-93
2021/11/30 05:26:12;;;;;;;3.60;3.30;;;0.40;99.90;;;;;;4975057;28;20209;-94
2021/11/30 05:28:42;;;;;;;3.25;2.60;;;0.50;99.90;;;;;;4976494;28;20280;-94
2021/11/30 05:31:10;;;;;;;3.20;2.90;;;0.40;99.90;;;;;;4977759;28;20254;-95
2021/11/30 05:59:36;;;;;;;4.35;3.22;;;0.40;99.90;;;;;;4961539;29;20288;-95
2021/11/30 06:02:06;;;;;;;4.28;3.33;;;0.30;99.90;;;;;;4975001;28;20213;-94
2021/11/30 06:07:34;;;;;;;4.53;3.00;;;0.40;99.90;;;;;;4966689;28;20209;-93
2021/11/30 06:10:00;;;;;;;5.28;4.03;;;0.40;99.90;;;;;;4968472;28;20216;-94
2021/11/30 06:12:27;;;;;;;5.82;3.83;;;0.40;99.90;;;;;;4970092;28;20295;-95
2021/11/30 06:15:16;;;;;;;4.55;3.60;;;0.40;99.90;;;;;;4971764;28;20208;-93
2021/11/30 06:17:44;;;;;;;4.28;3.35;;;0.30;99.90;;;;;;4967791;29;20291;-94
2021/11/30 06:25:27;;;;;;;5.95;3.97;;;0.40;99.90;;;;;;3593350;23;20242;-92
2021/11/30 06:27:54;;;;;;;3.72;3.42;;;0.30;99.90;;;;;;5005913;28;20319;-92
2021/11/30 06:30:24;;;;;;;4.22;3.83;;;0.30;99.90;;;;;;5009465;28;20190;-92
2021/11/30 06:32:52;;;;;;;4.30;3.90;;;0.30;99.90;;;;;;5018014;28;20270;-93
2021/11/30 06:35:19;;;;;;;4.88;4.00;;;0.20;99.90;;;;;;5009608;28;20271;-94
2021/11/30 07:08:54;;;;;;;4.63;3.28;;;0.00;99.90;;;;;;4994797;28;20669;-92
2021/11/30 07:11:34;;;;;;;4.47;3.42;;;0.00;99.90;;;;;;4994192;28;20255;-92
2021/11/30 07:14:01;;;;;;;3.55;3.25;;;0.00;99.90;;;;;;4992812;28;20203;-92
2021/11/30 07:19:11;;;;;;;3.55;3.10;;;0.10;99.90;;;;;;4991883;28;20198;-92
2021/11/30 07:21:39;;;;;;;4.00;3.58;;;0.10;99.90;;;;;;4993428;28;20240;-94
2021/11/30 07:24:07;;;;;;;4.97;3.45;;;0.10;99.90;;;;;;4985206;28;20203;-91
2021/11/30 07:26:34;;;;;;;3.45;3.15;;;0.10;99.90;;;;;;4981248;28;20229;-90
2021/11/30 07:29:03;;;;;;;5.57;3.70;;;0.10;99.90;;;;;;4982450;28;20290;-90
2021/11/30 07:31:30;;;;;;;4.63;3.55;;;0.10;99.90;;;;;;4982383;28;20204;-91
2021/11/30 07:34:02;;;;;;;4.75;3.63;;;0.20;99.90;;;;;;4991513;28;20199;-92
2021/11/30 07:36:31;;;;;;;4.38;3.40;;;0.20;99.90;;;;;;4997757;28;20207;-92
2021/11/30 07:38:59;;;;;;;3.13;2.83;;;0.20;99.90;;;;;;4997927;28;20218;-92
2021/11/30 07:41:28;;;;;;;5.35;3.00;;;0.20;99.90;;;;;;4997763;28;20215;-92
2021/11/30 07:44:00;;;;;;;3.70;3.40;;;0.30;99.90;;;;;;4998014;28;20211;-93
2021/11/30 07:46:27;;;;;;;3.58;3.08;;;0.20;99.90;;;;;;4997969;28;20196;-92
2021/11/30 07:48:55;;;;;;;2.97;2.67;;;0.30;99.90;;;;;;4998153;28;20192;-92
2021/11/30 07:51:23;;;;;;;3.30;3.00;;;0.30;99.90;;;;;;4997674;28;20192;-93
2021/11/30 07:53:50;;;;;;;3.20;2.90;;;0.30;99.90;;;;;;4997444;28;20280;-92
2021/11/30 07:56:20;;;;;;;2.80;2.25;;;0.30;99.90;;;;;;4997954;28;20279;-93
2021/11/30 07:58:49;;;;;;;3.13;2.75;;;0.30;99.90;;;;;;4996812;28;20230;-92
2021/11/30 08:01:16;;;;;;;2.67;2.45;;;0.40;99.90;;;;;;4997131;28;20192;-92
2021/11/30 08:03:47;;;;;;;3.17;2.88;;;0.40;99.90;;;;;;4993419;28;20184;-92
2021/11/30 08:12:08;;;;;;;3.10;2.78;;;0.50;99.90;;;;;;4981056;28;20700;-91
2021/11/30 08:14:39;;;;;;;2.80;2.50;;;0.50;99.90;;;;;;4986017;28;20280;-91
2021/11/30 08:17:13;;;;;;;4.75;2.30;;;0.40;99.90;;;;;;4985142;28;20226;-90
2021/11/30 08:20:18;;;;;;;2.50;1.90;;;0.50;99.90;;;;;;4984847;28;20210;-91
2021/11/30 08:25:32;;;;;;;5.13;3.50;;;0.50;99.90;;;;;;4974665;28;20276;-92
2021/11/30 08:28:15;;;;;;;3.28;2.75;;;0.50;99.90;;;;;;4986970;28;20291;-91
2021/11/30 08:30:53;;;;;;;5.10;3.08;;;0.50;99.90;;;;;;4987478;28;20218;-91
2021/11/30 08:33:23;;;;;;;3.15;2.47;;;0.60;99.90;;;;;;4984410;28;20219;-92
2021/11/30 08:36:14;;;;;;;4.00;3.00;;;0.60;99.90;;;;;;4986603;28;20208;-91
2021/11/30 08:42:28;;;;;;;2.92;2.35;;;0.70;99.90;;;;;;4957001;28;20308;-92
2021/11/30 08:44:58;;;;;;;2.30;2.10;;;0.80;99.90;;;;;;4979568;28;20207;-92
2021/11/30 08:50:13;;;;;;;6.75;2.53;;;0.80;99.90;;;;;;4977136;28;20184;-91
2021/11/30 08:52:56;;;;;;;2.60;2.40;;;0.80;99.90;;;;;;4974331;28;20219;-90
2021/11/30 08:55:23;;;;;;;2.97;2.30;;;0.80;99.90;;;;;;4980525;28;20264;-92
2021/11/30 08:57:51;;;;;;;2.75;2.53;;;0.90;99.90;;;;;;4964631;29;20255;-92
2021/11/30 09:00:23;;;;;;;2.45;2.25;;;0.90;99.90;;;;;;4967991;28;20200;-92
2021/11/30 09:02:53;;;;;;;2.67;2.47;;;0.90;99.90;;;;;;4982016;28;20231;-91
2021/11/30 09:05:27;;;;;;;4.13;1.92;;;0.90;99.90;;;;;;4985272;28;20234;-91
2021/11/30 09:08:01;;;;;;;2.67;2.35;;;1.00;99.90;;;;;;4984165;28;20223;-90
2021/11/30 09:10:28;;;;;;;2.50;2.30;;;1.00;99.90;;;;;;4982375;28;20212;-91
2021/11/30 09:13:10;;;;;;;2.65;2.42;;;1.00;99.90;;;;;;4984504;28;20335;-91
2021/11/30 09:16:11;;;;;;;2.47;2.28;;;1.10;99.90;;;;;;4983729;28;20724;-91
2021/11/30 09:18:42;;;;;;;2.92;2.30;;;1.10;99.90;;;;;;4980529;28;20211;-89
2021/11/30 09:21:10;;;;;;;2.50;2.30;;;1.10;99.90;;;;;;4983075;28;20235;-91
2021/11/30 09:23:38;;;;;;;1.83;1.73;;;1.10;99.90;;;;;;4979239;28;20281;-91
2021/11/30 09:26:07;;;;;;;3.70;2.13;;;1.20;99.90;;;;;;4981946;28;20203;-93
2021/11/30 09:28:34;;;;;;;3.25;2.10;;;1.20;99.90;;;;;;4982381;28;20222;-93
2021/11/30 09:31:28;;;;;;;3.45;2.40;;;1.20;99.90;;;;;;4984162;28;20680;-92
2021/11/30 09:34:10;;;;;;;2.25;1.98;;;1.20;99.90;;;;;;4985135;28;20578;-92
2021/11/30 09:36:42;;;;;;;2.25;2.05;;;1.30;99.90;;;;;;4983492;28;20204;-93
2021/11/30 09:39:09;;;;;;;1.98;1.80;;;1.30;99.90;;;;;;4984369;28;20211;-93
2021/11/30 09:41:37;;;;;;;1.52;1.42;;;1.40;99.90;;;;;;4984517;28;20792;-92
2021/11/30 09:44:07;;;;;;;1.50;1.40;;;1.40;99.90;;;;;;4982521;28;20231;-93
2021/11/30 09:46:35;;;;;;;2.15;1.80;;;1.50;99.90;;;;;;4980966;28;20203;-92
2021/11/30 09:49:04;;;;;;;1.95;1.58;;;1.50;99.90;;;;;;4979837;28;20588;-89
2021/11/30 09:51:31;;;;;;;2.70;1.77;;;1.60;99.90;;;;;;4983592;28;20206;-90
2021/11/30 09:53:58;;;;;;;1.80;1.70;;;1.60;99.90;;;;;;4986567;28;20290;-91
2021/11/30 09:56:25;;;;;;;1.52;1.42;;;1.60;99.90;;;;;;4989184;28;20215;-92
2021/11/30 09:58:53;;;;;;;2.00;1.50;;;1.60;99.90;;;;;;4988711;28;20275;-91
2021/11/30 10:01:34;;;;;;;2.17;1.98;;;1.60;99.90;;;;;;4987229;28;20199;-92
2021/11/30 10:04:03;;;;;;;5.00;1.55;;;1.50;99.90;;;;;;4986764;28;20270;-91
2021/11/30 10:06:30;;;;;;;4.18;2.00;;;1.50;99.90;;;;;;4981031;28;20238;-90
2021/11/30 10:09:16;;;;;;;1.83;1.60;;;1.50;99.90;;;;;;4981764;28;20318;-91
2021/11/30 10:11:43;;;;;;;2.22;1.90;;;1.60;99.90;;;;;;4980414;28;20211;-92
2021/11/30 10:14:13;;;;;;;2.03;1.50;;;1.60;99.90;;;;;;4981618;28;20239;-91
2021/11/30 10:16:40;;;;;;;1.70;1.50;;;1.60;99.90;;;;;;4981905;28;20207;-90
2021/11/30 10:19:08;;;;;;;4.88;1.60;;;1.70;99.90;;;;;;4983603;28;20239;-90
2021/11/30 10:21:36;;;;;;;2.38;1.60;;;1.70;99.90;;;;;;4982894;28;20240;-89
2021/11/30 10:24:05;;;;;;;1.27;1.15;;;1.70;99.90;;;;;;4989614;28;20220;-90
2021/11/30 10:26:44;;;;;;;1.35;1.20;;;1.70;99.90;;;;;;4991511;28;20208;-91
2021/11/30 10:29:50;;;;;;;1.75;1.63;;;1.70;99.90;;;;;;4991057;28;20207;-91
2021/11/30 10:32:57;;;;;;;;;;;;;;;;;;;;;
2021/11/30 10:35:28;;;;;;;1.48;1.30;;;1.70;99.90;;;;;;4991522;28;20183;-92
2021/11/30 10:38:15;;;;;;;1.38;1.27;;;1.60;99.90;;;;;;4989953;28;20279;-92
2021/11/30 10:40:46;;;;;;;1.33;1.23;;;1.60;99.90;;;;;;4979879;28;20266;-93
2021/11/30 10:46:22;;;;;;;1.40;1.30;;;1.60;99.90;;;;;;4983039;28;20207;-91
2021/11/30 10:49:04;;;;;;;3.35;1.20;;;1.60;99.90;;;;;;4988073;28;20208;-90
2021/11/30 10:51:53;;;;;;;1.30;1.20;;;1.60;99.90;;;;;;4983500;28;20199;-89
2021/11/30 10:54:28;;;;;;;1.60;1.27;;;1.60;99.90;;;;;;4995161;28;20207;-90
2021/11/30 10:57:24;;;;;;;1.15;1.05;;;1.60;99.90;;;;;;4983809;28;20219;-91
2021/11/30 10:59:51;;;;;;;2.33;1.30;;;1.70;99.90;;;;;;4978760;28;20203;-90
2021/11/30 11:02:49;;;;;;;1.35;1.15;;;1.60;99.90;;;;;;4976269;28;20239;-91
2021/11/30 11:05:21;;;;;;;1.35;1.20;;;1.60;99.90;;;;;;4978096;28;20239;-91
2021/11/30 11:08:10;;;;;;;1.42;1.10;;;1.70;99.90;;;;;;4979718;28;20283;-91
2021/11/30 11:11:10;;;;;;;1.55;1.35;;;1.80;99.90;;;;;;4998562;28;20672;-89
2021/11/30 11:13:38;;;;;;;1.58;1.15;;;1.80;99.90;;;;;;4979157;28;20222;-90
2021/11/30 11:22:22;;;;;;;3.92;1.40;;;1.80;99.90;;;;;;5062629;23;20284;-90
2021/11/30 11:24:51;;;;;;;3.05;1.35;;;1.80;99.90;;;;;;4937703;28;20231;-90
2021/11/30 11:27:19;;;;;;;1.20;1.10;;;1.80;99.90;;;;;;4979829;28;20290;-91
2021/11/30 11:29:46;;;;;;;1.20;1.10;;;1.90;99.90;;;;;;4977496;28;20215;-92
2021/11/30 11:32:13;;;;;;;1.63;1.33;;;1.90;99.90;;;;;;4975284;28;20226;-90
2021/11/30 11:34:42;;;;;;;1.30;1.10;;;1.90;99.90;;;;;;4975554;28;20207;-91
2021/11/30 11:37:11;;;;;;;1.10;1.00;;;1.90;99.90;;;;;;4976467;28;20265;-91
2021/11/30 11:39:38;;;;;;;1.40;1.00;;;1.90;99.90;;;;;;4977511;28;20211;-91
2021/11/30 11:42:11;;;;;;;1.52;1.30;;;1.90;99.90;;;;;;4975061;28;20230;-92
2021/11/30 11:44:40;;;;;;;1.38;1.05;;;1.90;99.90;;;;;;4974809;28;20204;-91
2021/11/30 11:47:10;;;;;;;1.35;1.25;;;2.00;99.90;;;;;;4978487;28;20238;-91
2021/11/30 11:49:39;;;;;;;1.70;1.35;;;2.00;99.90;;;;;;4974671;28;20208;-91
2021/11/30 11:52:18;;;;;;;1.27;1.17;;;2.00;99.90;;;;;;4960289;28;20224;-89
2021/11/30 11:54:58;;;;;;;1.25;1.10;;;2.00;99.90;;;;;;4961409;28;20623;-90
2021/11/30 11:57:27;;;;;;;1.30;1.15;;;1.90;99.90;;;;;;4959096;28;20204;-91
2021/11/30 11:59:55;;;;;;;1.50;1.40;;;1.90;99.90;;;;;;4959397;28;20224;-92
2021/11/30 12:02:24;;;;;;;1.70;1.45;;;1.90;99.90;;;;;;4958061;28;20227;-91
2021/11/30 12:04:55;;;;;;;1.30;1.20;;;1.90;99.90;;;;;;4959127;28;20620;-91
2021/11/30 12:07:24;;;;;;;1.92;1.77;;;1.80;99.90;;;;;;4957998;28;20218;-92
2021/11/30 12:10:14;;;;;;;1.33;1.23;;;1.90;99.90;;;;;;4959611;28;20201;-91
2021/11/30 12:12:53;;;;;;;1.35;1.25;;;1.90;99.90;;;;;;4959970;28;20231;-91
2021/11/30 12:15:21;;;;;;;1.30;1.20;;;2.00;99.90;;;;;;4960643;28;20633;-92
2021/11/30 12:17:49;;;;;;;1.35;1.23;;;2.00;99.90;;;;;;4959788;28;20670;-93
2021/11/30 12:20:20;;;;;;;1.30;1.17;;;2.00;99.90;;;;;;4961430;28;20211;-91
2021/11/30 12:23:03;;;;;;;1.67;1.52;;;2.00;99.90;;;;;;4962749;28;20228;-91
2021/11/30 12:25:46;;;;;;;1.50;1.15;;;2.00;99.90;;;;;;4961172;28;20377;-91
2021/11/30 12:31:32;;;;;;;2.55;1.90;;;2.00;99.90;;;;;;4963547;28;20208;-92
2021/11/30 12:34:44;;;;;;;2.00;1.45;;;2.00;99.90;;;;;;4961979;28;20764;-91
2021/11/30 12:37:21;;;;;;;1.40;1.27;;;2.00;99.90;;;;;;4962241;28;20299;-92
2021/11/30 12:50:16;;;;;;;1.50;1.10;;;2.00;99.90;;;;;;4979970;28;20227;-92
2021/11/30 12:56:22;;;;;;;;;;;;;;;;;;;;;
2021/11/30 12:59:11;;;;;;;1.20;1.10;;;2.00;99.90;;;;;;4918469;29;20730;-90
2021/11/30 13:09:41;;;;;;;1.15;1.05;;;2.00;99.90;;;;;;4957223;29;20225;-91
2021/11/30 13:12:14;;;;;;;1.15;1.00;;;1.90;99.90;;;;;;4958530;28;20224;-91
2021/11/30 13:14:42;;;;;;;1.40;1.20;;;1.90;99.90;;;;;;4960427;28;20208;-91
2021/11/30 13:17:42;;;;;;;1.73;1.20;;;1.90;99.90;;;;;;4961638;28;20307;-92
2021/11/30 13:23:31;;;;;;;4.03;1.20;;;1.90;99.90;;;;;;4961909;28;20224;-91
2021/11/30 13:26:00;;;;;;;1.50;1.10;;;1.80;99.90;;;;;;4960998;28;20208;-91
2021/11/30 13:28:29;;;;;;;1.30;1.20;;;1.80;99.90;;;;;;4961796;28;20291;-92
2021/11/30 13:30:59;;;;;;;2.25;1.20;;;1.90;99.90;;;;;;4959865;28;20215;-91
2021/11/30 13:33:30;;;;;;;1.90;1.50;;;1.90;99.90;;;;;;4960789;28;20231;-91
2021/11/30 13:36:14;;;;;;;1.60;1.50;;;1.80;99.90;;;;;;4960693;28;20196;-91
2021/11/30 13:38:47;;;;;;;2.42;1.52;;;1.80;99.90;;;;;;4961231;28;20534;-92
2021/11/30 13:41:17;;;;;;;2.08;1.20;;;1.80;99.90;;;;;;4979417;28;20407;-92
2021/11/30 13:46:36;;;;;;;1.60;1.20;;;1.90;99.90;;;;;;5271061;23;20229;-92
2021/11/30 13:49:06;;;;;;;1.80;1.40;;;1.90;99.90;;;;;;4978514;28;20181;-92
2021/11/30 13:51:36;;;;;;;6.72;2.60;;;1.90;99.90;;;;;;4979150;28;20192;-92
2021/11/30 13:54:06;;;;;;;1.90;1.35;;;1.90;99.90;;;;;;4976909;28;20280;-94
2021/11/30 13:56:50;;;;;;;1.92;1.52;;;1.90;99.90;;;;;;4976135;28;20216;-92
2021/11/30 13:59:20;;;;;;;2.17;1.67;;;1.90;99.90;;;;;;4971951;29;20580;-91
2021/11/30 14:01:51;;;;;;;1.50;1.40;;;1.90;99.90;;;;;;4962846;28;20255;-91
2021/11/30 14:04:27;;;;;;;2.72;1.52;;;1.90;99.90;;;;;;4969555;29;20235;-92
2021/11/30 14:07:04;;;;;;;1.52;1.42;;;1.90;99.90;;;;;;4964287;29;20220;-91
2021/11/30 14:09:48;;;;;;;3.25;1.70;;;2.00;99.90;;;;;;4966298;28;20211;-91
2021/11/30 14:12:20;;;;;;;3.25;1.90;;;2.00;99.90;;;;;;4972413;28;20255;-92
2021/11/30 14:15:08;;;;;;;2.95;1.35;;;2.00;99.90;;;;;;4964299;29;20200;-91
2021/11/30 14:17:39;;;;;;;1.40;1.30;;;2.00;99.90;;;;;;4949123;29;20220;-92
2021/11/30 14:20:19;;;;;;;1.25;1.15;;;2.00;99.90;;;;;;4956340;29;20213;-93
2021/11/30 14:22:57;;;;;;;2.38;1.60;;;2.00;99.90;;;;;;4957352;29;20296;-93
2021/11/30 14:25:43;;;;;;;2.90;1.30;;;2.00;99.90;;;;;;4955299;28;20232;-94
2021/11/30 14:28:18;;;;;;;2.40;1.60;;;2.00;99.90;;;;;;4953213;29;20195;-91
2021/11/30 14:30:46;;;;;;;1.85;1.30;;;2.00;99.90;;;;;;4955097;29;20205;-92
2021/11/30 14:33:22;;;;;;;1.50;1.40;;;2.00;99.90;;;;;;4967241;28;20205;-92
2021/11/30 14:35:58;;;;;;;1.35;1.25;;;2.00;99.90;;;;;;4973453;29;20239;-94
2021/11/30 14:38:27;;;;;;;2.83;1.40;;;2.10;99.90;;;;;;4970799;29;20214;-93
2021/11/30 14:41:06;;;;;;;1.30;1.20;;;2.10;99.90;;;;;;4969085;29;20276;-93
2021/11/30 14:43:51;;;;;;;3.08;1.38;;;2.10;99.90;;;;;;4967055;28;20244;-95
2021/11/30 14:46:20;;;;;;;2.58;1.10;;;2.10;99.90;;;;;;4966179;28;20239;-94
2021/11/30 14:48:50;;;;;;;2.67;1.75;;;2.10;99.90;;;;;;4960529;29;20211;-94
2021/11/30 14:51:21;;;;;;;2.63;1.65;;;2.20;99.90;;;;;;4961132;28;20210;-90
2021/11/30 14:53:55;;;;;;;1.38;1.20;;;2.10;99.90;;;;;;4968161;28;20203;-93
2021/11/30 14:59:33;;;;;;;2.72;1.20;;;2.20;99.90;;;;;;4968292;29;20200;-92
2021/11/30 15:04:50;;;;;;;3.05;1.85;;;2.20;99.90;;;;;;4972697;29;20262;-93
2021/11/30 15:07:18;;;;;;;2.55;1.75;;;2.30;99.90;;;;;;4970052;29;20281;-93
2021/11/30 15:09:46;;;;;;;1.48;1.10;;;2.30;99.90;;;;;;4968956;29;20261;-92
2021/11/30 15:12:14;;;;;;;1.45;1.25;;;2.30;99.90;;;;;;4967326;28;20216;-93
2021/11/30 15:14:43;;;;;;;3.60;1.30;;;2.40;99.90;;;;;;4967515;29;20236;-94
2021/11/30 15:17:12;;;;;;;1.45;1.15;;;2.40;99.90;;;;;;4972917;29;20216;-94
2021/11/30 15:19:41;;;;;;;2.75;1.08;;;2.40;99.90;;;;;;4978756;28;20199;-93
2021/11/30 15:22:10;;;;;;;2.40;1.20;;;2.50;99.90;;;;;;4978373;28;20272;-95
2021/11/30 15:24:41;;;;;;;1.70;1.40;;;2.50;99.90;;;;;;4978496;28;20216;-95
2021/11/30 15:27:10;;;;;;;1.20;1.00;;;2.50;99.90;;;;;;4978918;28;20299;-93
2021/11/30 15:29:37;;;;;;;1.20;1.00;;;2.50;99.90;;;;;;4979606;28;20215;-94
2021/11/30 15:32:14;;;;;;;1.35;1.00;;;2.50;99.90;;;;;;4978756;28;20213;-94
2021/11/30 15:34:48;;;;;;;2.50;1.58;;;2.60;99.90;;;;;;4973497;28;20200;-91
2021/11/30 15:37:16;;;;;;;1.33;1.15;;;2.60;99.90;;;;;;4970758;29;20195;-92
2021/11/30 15:39:43;;;;;;;1.10;0.90;;;2.60;99.90;;;;;;4969849;29;20212;-92
2021/11/30 15:42:13;;;;;;;1.02;0.90;;;2.60;99.90;;;;;;4966507;28;20757;-90
2021/11/30 15:44:42;;;;;;;1.30;1.10;;;2.60;99.90;;;;;;4969342;29;20232;-92
2021/11/30 15:47:12;;;;;;;1.50;1.00;;;2.60;99.90;;;;;;4970629;28;20209;-94
2021/11/30 15:49:39;;;;;;;1.10;0.90;;;2.60;99.90;;;;;;4968302;28;20216;-91
2021/11/30 15:52:07;;;;;;;2.00;1.33;;;2.60;99.90;;;;;;4965714;28;20232;-91
2021/11/30 15:54:37;;;;;;;1.00;0.90;;;2.70;99.90;;;;;;4968535;28;20268;-94
2021/11/30 15:57:22;;;;;;;1.35;1.02;;;2.70;99.90;;;;;;4967148;28;20713;-90
2021/11/30 15:59:50;;;;;;;1.05;0.95;;;2.60;99.90;;;;;;4963215;28;20208;-90
2021/11/30 16:05:36;;;;;;;1.20;1.02;;;2.60;99.90;;;;;;4963468;28;20228;-94
2021/11/30 16:31:49;;;;;;;1.85;1.30;;;2.40;99.90;;;;;;5406476;23;20235;-94
2021/11/30 16:34:24;;;;;;;2.38;1.40;;;2.40;99.90;;;;;;4997178;28;20227;-92
2021/11/30 16:37:07;;;;;;;1.70;1.40;;;2.40;99.90;;;;;;4994335;28;20677;-92
2021/11/30 16:47:08;;;;;;;1.90;1.33;;;2.40;99.90;;;;;;4953552;28;20258;-93
2021/11/30 16:53:00;;;;;;;1.98;1.15;;;2.40;99.90;;;;;;4988875;28;20234;-92
2021/11/30 16:55:33;;;;;;;3.60;1.33;;;2.40;99.90;;;;;;4982257;28;20224;-92
2021/11/30 16:58:05;;;;;;;4.03;1.20;;;2.40;99.90;;;;;;4978953;28;20211;-92
2021/11/30 18:03:23;;;;;;;3.38;2.42;;;2.50;99.90;;;;;;4977135;28;20192;-92
2021/11/30 18:05:50;;;;;;;2.83;1.90;;;2.50;99.90;;;;;;4977720;28;20219;-93
2021/11/30 18:08:17;;;;;;;1.63;1.40;;;2.50;99.90;;;;;;4977703;28;20292;-93
2021/11/30 18:10:48;;;;;;;1.05;0.95;;;2.50;99.90;;;;;;4978715;28;20205;-92
2021/11/30 18:13:18;;;;;;;1.65;1.15;;;2.50;99.90;;;;;;4978165;28;20200;-92
2021/11/30 18:15:45;;;;;;;1.55;1.35;;;2.60;99.90;;;;;;4978853;28;20260;-95
2021/11/30 18:18:13;;;;;;;1.40;1.23;;;2.60;99.90;;;;;;4977580;28;20216;-94
2021/11/30 18:20:42;;;;;;;1.25;1.15;;;2.60;99.90;;;;;;4977762;28;20201;-93
2021/11/30 18:23:09;;;;;;;1.50;1.40;;;2.60;99.90;;;;;;4978543;28;20192;-93
2021/11/30 18:25:37;;;;;;;1.80;1.45;;;2.50;99.90;;;;;;4978470;28;20802;-94
2021/11/30 18:28:06;;;;;;;1.50;1.17;;;2.50;99.90;;;;;;4977737;28;20255;-94
2021/11/30 18:30:52;;;;;;;1.63;1.48;;;2.50;99.90;;;;;;4983318;28;20296;-94
2021/11/30 18:33:19;;;;;;;1.45;1.15;;;2.60;99.90;;;;;;4997461;28;20207;-93
2021/11/30 18:35:47;;;;;;;1.40;1.23;;;2.60;99.90;;;;;;4987083;28;20196;-94
2021/11/30 18:38:18;;;;;;;2.05;1.00;;;2.60;99.90;;;;;;4978401;28;20232;-94
2021/11/30 18:40:45;;;;;;;1.63;1.25;;;2.60;99.90;;;;;;4978570;28;20192;-93
2021/11/30 18:43:12;;;;;;;1.70;1.60;;;2.60;99.90;;;;;;4978517;28;20200;-94
2021/11/30 18:45:45;;;;;;;2.17;0.90;;;2.60;99.90;;;;;;4978843;28;20311;-93
2021/11/30 18:48:20;;;;;;;2.20;1.25;;;2.60;99.90;;;;;;4977833;28;20222;-94
2021/11/30 18:51:22;;;;;;;4.10;1.63;;;2.70;99.90;;;;;;4970191;28;20192;-94
2021/11/30 18:53:54;;;;;;;6.38;4.18;;;2.70;99.90;;;;;;4978822;28;20333;-95
2021/11/30 18:59:04;;;;;;;1.95;1.35;;;2.70;99.90;;;;;;5075749;23;20273;-94
2021/11/30 19:01:32;;;;;;;1.70;1.42;;;2.80;99.90;;;;;;5012742;28;20199;-92
2021/11/30 19:03:59;;;;;;;1.15;1.05;;;2.80;99.90;;;;;;5013518;28;20202;-93
2021/11/30 19:06:28;;;;;;;1.38;1.23;;;2.80;99.90;;;;;;5010863;28;20263;-93
2021/11/30 19:08:55;;;;;;;1.55;1.20;;;2.80;99.90;;;;;;4978066;28;20216;-91
2021/11/30 19:11:25;;;;;;;1.30;1.20;;;2.80;99.90;;;;;;4979362;28;20228;-94
2021/11/30 19:13:59;;;;;;;1.55;1.00;;;2.80;99.90;;;;;;4992767;28;20207;-91
2021/11/30 19:16:51;;;;;;;1.40;1.20;;;2.80;99.90;;;;;;4994021;28;20190;-92
